Time;durP1;ratioP1;P1;durP2;ratioP2;P2;SDS_P1;SDS_P2;PMS_P1;PMS_P2;Temp;Humidity;BMP_temperature;BMP_pressure;BME280_temperature;BME280_humidity;BME280_pressure;Samples;Min_cycle;Max_cycle;Signal;HPM_P1;HPM_P2
2023/12/04 00:00:36;;;;;;;28.40;11.70;;;;;;;-2.89;78.27;99677.99;105528;1256;96529;-69
2023/12/04 00:03:23;;;;;;;27.20;11.60;;;;;;;-2.93;78.26;99681.67;105542;1255;113754;-69
2023/12/04 00:05:51;;;;;;;28.40;11.40;;;;;;;-2.99;78.15;99685.70;105655;1255;98412;-69
2023/12/04 00:11:06;;;;;;;29.90;12.40;;;;;;;-3.07;78.31;99686.11;105560;1258;96589;-69
2023/12/04 00:13:35;;;;;;;27.40;12.30;;;;;;;-3.14;78.16;99685.64;106245;1251;97925;-70
2023/12/04 00:16:03;;;;;;;28.50;12.50;;;;;;;-3.20;78.13;99686.55;105592;1254;109877;-70
2023/12/04 00:18:31;;;;;;;29.10;14.20;;;;;;;-3.26;77.97;99690.40;106110;1255;96711;-70
2023/12/04 00:20:59;;;;;;;28.40;12.60;;;;;;;-3.31;78.18;99688.35;105920;1259;107688;-70
2023/12/04 00:23:27;;;;;;;30.90;12.00;;;;;;;-3.37;78.14;99690.64;105996;1251;96610;-70
2023/12/04 00:25:55;;;;;;;36.30;15.20;;;;;;;-3.44;78.06;99692.08;106741;1256;96628;-70
2023/12/04 00:28:23;;;;;;;29.90;14.00;;;;;;;-3.49;78.04;99693.30;105619;1258;109289;-70
2023/12/04 00:30:51;;;;;;;31.10;14.00;;;;;;;-3.53;78.05;99694.38;105737;1255;96574;-70
2023/12/04 00:33:19;;;;;;;35.50;14.70;;;;;;;-3.58;77.90;99697.35;105377;1267;107447;-70
2023/12/04 00:35:47;;;;;;;30.50;13.90;;;;;;;-3.66;77.82;99698.77;105740;1260;97538;-70
2023/12/04 00:38:15;;;;;;;32.50;14.70;;;;;;;-3.73;77.70;99700.89;107858;1254;94796;-70
2023/12/04 00:40:43;;;;;;;35.00;15.50;;;;;;;-3.83;77.61;99697.96;108091;1255;108490;-70
2023/12/04 00:43:11;;;;;;;32.70;15.00;;;;;;;-3.92;77.64;99701.98;105747;1255;96606;-69
2023/12/04 00:45:38;;;;;;;32.50;13.70;;;;;;;-4.00;77.78;99700.45;105544;1257;107640;-69
2023/12/04 00:48:06;;;;;;;34.40;15.80;;;;;;;-4.12;77.64;99702.39;105523;1256;97537;-70
2023/12/04 00:51:58;;;;;;;32.70;15.80;;;;;;;-4.21;77.63;99706.23;105576;1257;96657;-69
2023/12/04 00:54:35;;;;;;;33.90;14.30;;;;;;;-4.38;77.60;99707.64;105387;1264;109707;-69
2023/12/04 00:57:03;;;;;;;32.90;12.80;;;;;;;-4.48;77.62;99709.21;106056;1254;96667;-69
2023/12/04 00:59:30;;;;;;;29.80;12.80;;;;;;;-4.59;77.48;99708.00;106113;1255;107233;-69
2023/12/04 01:01:58;;;;;;;31.60;13.30;;;;;;;-4.68;77.53;99712.86;106191;1257;96607;-70
2023/12/04 01:04:26;;;;;;;34.70;14.90;;;;;;;-4.84;77.12;99715.62;105292;1256;97842;-69
2023/12/04 01:06:54;;;;;;;31.90;13.70;;;;;;;-4.97;77.29;99722.89;105981;1259;109510;-69
2023/12/04 01:09:24;;;;;;;32.00;13.40;;;;;;;-5.05;77.32;99723.57;105927;1256;97885;-70
2023/12/04 01:11:53;;;;;;;35.50;14.00;;;;;;;-5.13;77.32;99724.25;105430;1265;108630;-71
2023/12/04 01:14:21;;;;;;;32.60;14.00;;;;;;;-5.21;77.53;99722.16;106627;1251;96668;-70
2023/12/04 01:16:49;;;;;;;35.80;14.10;;;;;;;-5.28;77.39;99726.12;105520;1257;96548;-70
2023/12/04 01:19:17;;;;;;;35.90;14.40;;;;;;;-5.39;77.21;99723.50;105975;1254;109310;-70
2023/12/04 01:21:45;;;;;;;32.30;13.00;;;;;;;-5.54;76.77;99723.80;106599;1255;96576;-70
2023/12/04 01:24:15;;;;;;;32.10;13.20;;;;;;;-5.65;76.99;99719.95;106332;1256;108315;-70
2023/12/04 01:26:42;;;;;;;31.10;13.90;;;;;;;-5.71;77.13;99714.23;105935;1256;97931;-70
2023/12/04 01:29:10;;;;;;;32.70;13.00;;;;;;;-5.77;77.19;99721.47;105830;1257;96958;-70
2023/12/04 01:31:38;;;;;;;31.10;12.70;;;;;;;-5.76;77.07;99718.71;105848;1257;109570;-70
2023/12/04 01:34:06;;;;;;;32.90;12.60;;;;;;;-5.75;77.35;99721.30;105537;1251;96588;-70
2023/12/04 01:36:34;;;;;;;30.40;11.80;;;;;;;-5.74;77.37;99720.96;106018;1256;107537;-69
2023/12/04 01:39:03;;;;;;;26.80;11.30;;;;;;;-5.71;77.41;99723.40;105912;1252;96536;-69
2023/12/04 01:41:31;;;;;;;29.90;11.80;;;;;;;-5.68;77.70;99724.27;105654;1251;96606;-68
2023/12/04 01:43:59;;;;;;;29.30;11.50;;;;;;;-5.65;77.41;99726.34;106151;1257;110011;-70
2023/12/04 01:46:27;;;;;;;31.50;13.80;;;;;;;-5.63;77.48;99721.52;105666;1259;96587;-70
2023/12/04 01:48:55;;;;;;;33.10;14.10;;;;;;;-5.62;77.36;99726.20;105793;1257;107592;-70
2023/12/04 01:51:26;;;;;;;28.80;12.10;;;;;;;-5.62;77.27;99723.42;105634;1257;97530;-70
2023/12/04 01:53:59;;;;;;;28.00;11.40;;;;;;;-5.58;77.37;99724.65;105528;1256;97910;-69
2023/12/04 01:56:27;;;;;;;29.30;12.50;;;;;;;-5.57;77.11;99724.66;105730;1252;109869;-70
2023/12/04 01:58:55;;;;;;;27.90;11.60;;;;;;;-5.59;77.42;99722.23;106887;1256;96485;-68
2023/12/04 02:01:24;;;;;;;28.80;11.40;;;;;;;-5.57;77.30;99723.79;107465;1251;108005;-71
2023/12/04 02:03:52;;;;;;;29.70;12.20;;;;;;;-5.56;77.11;99723.81;107346;1253;96718;-69
2023/12/04 02:06:20;;;;;;;26.80;10.90;;;;;;;-5.54;77.13;99726.39;105527;1256;96702;-69
2023/12/04 02:08:48;;;;;;;25.40;9.90;;;;;;;-5.49;77.25;99726.05;105787;1253;109790;-69
2023/12/04 02:11:16;;;;;;;28.60;12.00;;;;;;;-5.47;77.14;99726.92;105880;1257;96717;-69
2023/12/04 02:13:44;;;;;;;24.60;9.80;;;;;;;-5.45;77.25;99730.04;105543;1256;107545;-68
2023/12/04 02:16:16;;;;;;;26.20;11.30;;;;;;;-5.43;77.19;99729.36;105691;1256;96597;-69
2023/12/04 02:18:44;;;;;;;24.80;9.40;;;;;;;-5.40;77.48;99729.20;105532;1256;96520;-69
2023/12/04 02:21:12;;;;;;;24.90;9.40;;;;;;;-5.39;77.37;99729.02;105655;1257;109641;-69
2023/12/04 02:23:40;;;;;;;26.20;10.30;;;;;;;-5.36;76.98;99732.84;105474;1257;96516;-69
2023/12/04 02:26:17;;;;;;;24.60;10.50;;;;;;;-5.34;77.21;99734.06;105554;1256;107584;-69
2023/12/04 02:28:55;;;;;;;27.10;10.80;;;;;;;-5.29;77.27;99734.42;105469;1256;97820;-69
2023/12/04 02:31:24;;;;;;;21.60;9.20;;;;;;;-5.24;77.28;99737.19;108584;1251;94596;-70
2023/12/04 02:33:55;;;;;;;25.80;9.70;;;;;;;-5.19;77.21;99739.11;105835;1257;108948;-70
2023/12/04 02:36:29;;;;;;;24.70;9.80;;;;;;;-5.12;77.50;99739.30;105810;1256;96702;-69
2023/12/04 02:38:58;;;;;;;25.60;9.50;;;;;;;-5.03;77.45;99738.62;105635;1259;107649;-69
2023/12/04 02:41:27;;;;;;;23.10;8.80;;;;;;;-4.96;77.37;99738.28;105384;1263;96615;-69
2023/12/04 02:43:54;;;;;;;23.00;9.80;;;;;;;-4.88;77.35;99743.66;105708;1256;96733;-69
2023/12/04 02:46:23;;;;;;;23.20;8.60;;;;;;;-4.82;77.32;99741.41;105845;1257;110239;-69
2023/12/04 02:48:50;;;;;;;23.60;9.60;;;;;;;-4.74;77.61;99746.79;106057;1256;96612;-69
2023/12/04 02:51:18;;;;;;;23.90;9.50;;;;;;;-4.67;77.67;99738.99;106000;1256;107253;-69
2023/12/04 02:53:46;;;;;;;25.50;9.20;;;;;;;-4.58;77.58;99740.55;105352;1256;96623;-69
2023/12/04 02:56:14;;;;;;;24.00;9.40;;;;;;;-4.53;77.65;99735.54;105295;1257;96639;-69
2023/12/04 02:58:42;;;;;;;25.20;9.80;;;;;;;-4.49;77.44;99738.14;105476;1260;109894;-69
2023/12/04 03:01:09;;;;;;;24.80;9.10;;;;;;;-4.45;77.74;99737.08;105381;1257;96599;-69
2023/12/04 03:03:37;;;;;;;25.90;9.70;;;;;;;-4.39;77.57;99737.77;105273;1257;107682;-70
2023/12/04 03:06:06;;;;;;;22.70;9.50;;;;;;;-4.35;77.55;99738.80;107448;1251;97933;-70
2023/12/04 03:08:34;;;;;;;26.70;10.30;;;;;;;-4.29;77.41;99740.54;105939;1256;96612;-70
2023/12/04 03:11:03;;;;;;;24.50;10.50;;;;;;;-4.25;77.32;99735.67;105674;1254;110567;-70
2023/12/04 03:13:31;;;;;;;22.90;9.00;;;;;;;-4.22;77.59;99732.38;105906;1257;96625;-70
2023/12/04 03:15:59;;;;;;;25.60;10.50;;;;;;;-4.17;77.62;99735.66;106223;1257;107392;-70
2023/12/04 03:18:28;;;;;;;25.50;9.70;;;;;;;-4.15;77.28;99731.50;105737;1256;97922;-69
2023/12/04 03:20:56;;;;;;;25.40;9.40;;;;;;;-4.14;77.45;99731.67;105624;1264;97918;-70
2023/12/04 03:23:24;;;;;;;25.00;9.80;;;;;;;-4.14;77.48;99735.31;105608;1254;109404;-69
2023/12/04 03:25:52;;;;;;;23.10;10.20;;;;;;;-4.16;77.28;99732.20;105634;1257;96602;-70
2023/12/04 03:28:20;;;;;;;23.10;8.60;;;;;;;-4.17;77.24;99732.19;105685;1257;107647;-69
2023/12/04 03:30:48;;;;;;;22.50;9.20;;;;;;;-4.19;77.17;99731.70;105556;1257;97524;-70
2023/12/04 03:33:16;;;;;;;24.50;9.40;;;;;;;-4.21;77.09;99737.58;105609;1254;96670;-70
2023/12/04 03:35:44;;;;;;;24.60;9.70;;;;;;;-4.25;77.12;99733.93;105989;1256;110029;-70
2023/12/04 03:38:12;;;;;;;26.10;10.70;;;;;;;-4.26;77.35;99733.94;105642;1258;96567;-68
2023/12/04 03:40:39;;;;;;;24.60;10.30;;;;;;;-4.28;76.86;99740.18;105723;1257;108426;-69
2023/12/04 03:43:07;;;;;;;25.20;10.70;;;;;;;-4.33;76.98;99740.55;106335;1251;97137;-69
2023/12/04 03:45:35;;;;;;;26.70;10.70;;;;;;;-4.37;76.86;99741.23;106901;1254;97556;-69
2023/12/04 03:48:03;;;;;;;29.70;12.10;;;;;;;-4.43;76.95;99745.73;105860;1256;109725;-70
2023/12/04 03:50:31;;;;;;;27.60;10.80;;;;;;;-4.46;76.98;99741.93;105716;1253;96600;-71
2023/12/04 03:52:59;;;;;;;32.20;11.60;;;;;;;-4.49;77.01;99740.03;105676;1264;106413;-70
2023/12/04 03:55:27;;;;;;;32.70;11.70;;;;;;;-4.55;76.73;99739.70;105693;1254;97413;-69
2023/12/04 03:57:56;;;;;;;30.90;11.80;;;;;;;-4.63;76.85;99740.38;105765;1253;96603;-69
2023/12/04 04:00:24;;;;;;;31.10;12.20;;;;;;;-4.65;76.97;99750.77;106287;1254;110566;-68
2023/12/04 04:02:52;;;;;;;29.20;11.10;;;;;;;-4.65;76.94;99757.52;105838;1254;96699;-69
2023/12/04 04:05:20;;;;;;;29.50;12.10;;;;;;;-4.68;76.78;99756.13;106756;1254;107499;-68
2023/12/04 04:07:48;;;;;;;28.60;13.20;;;;;;;-4.77;76.52;99758.02;106079;1264;96687;-69
2023/12/04 04:10:16;;;;;;;34.10;14.60;;;;;;;-4.86;76.31;99761.64;105588;1260;96593;-69
2023/12/04 04:12:44;;;;;;;33.60;13.90;;;;;;;-4.86;76.76;99760.95;105502;1257;110123;-69
2023/12/04 04:15:12;;;;;;;29.50;12.00;;;;;;;-4.85;76.95;99767.19;105486;1251;96509;-69
2023/12/04 04:17:40;;;;;;;27.50;11.10;;;;;;;-4.83;76.93;99768.75;108716;1251;108813;-70
2023/12/04 04:20:08;;;;;;;25.50;10.00;;;;;;;-4.81;76.82;99771.17;105331;1257;96744;-69
2023/12/04 04:22:38;;;;;;;27.00;11.20;;;;;;;-4.77;76.79;99775.86;106848;1256;97938;-69
2023/12/04 04:25:07;;;;;;;25.70;10.80;;;;;;;-4.74;76.89;99776.37;105579;1253;109905;-70
2023/12/04 04:27:35;;;;;;;27.00;12.60;;;;;;;-4.70;77.01;99774.14;105635;1254;97521;-69
2023/12/04 04:30:03;;;;;;;25.50;10.00;;;;;;;-4.68;76.94;99772.56;105483;1255;107357;-70
2023/12/04 04:32:31;;;;;;;24.30;9.60;;;;;;;-4.64;77.15;99777.77;105841;1257;97416;-69
2023/12/04 04:34:59;;;;;;;28.10;10.50;;;;;;;-4.59;77.22;99776.39;105597;1264;96513;-69
2023/12/04 04:37:27;;;;;;;25.60;10.50;;;;;;;-4.55;77.20;99775.34;105591;1257;110263;-69
2023/12/04 04:39:55;;;;;;;27.80;10.90;;;;;;;-4.52;77.18;99773.98;105648;1253;97199;-69
2023/12/04 04:42:23;;;;;;;27.10;11.80;;;;;;;-4.50;77.26;99771.90;105630;1264;107292;-68
2023/12/04 04:44:51;;;;;;;23.30;9.20;;;;;;;-4.48;77.18;99771.20;105737;1264;96673;-68
2023/12/04 04:47:19;;;;;;;27.00;11.70;;;;;;;-4.47;77.03;99777.26;106011;1255;96701;-69
2023/12/04 04:49:47;;;;;;;24.40;10.20;;;;;;;-4.48;77.01;99781.75;105347;1251;109463;-69
2023/12/04 04:52:15;;;;;;;23.70;9.10;;;;;;;-4.50;76.82;99784.88;105366;1258;96655;-69
2023/12/04 04:54:43;;;;;;;27.10;11.10;;;;;;;-4.51;76.75;99789.05;105848;1254;107614;-69
2023/12/04 04:57:11;;;;;;;25.80;10.80;;;;;;;-4.53;76.64;99787.83;105750;1251;96600;-69
2023/12/04 04:59:39;;;;;;;27.50;11.20;;;;;;;-4.56;76.78;99789.36;105964;1251;96633;-69
2023/12/04 05:02:07;;;;;;;26.80;10.70;;;;;;;-4.56;76.89;99791.61;106011;1253;113019;-70
2023/12/04 05:04:34;;;;;;;24.70;10.00;;;;;;;-4.58;76.96;99794.56;105855;1257;97494;-69
2023/12/04 05:07:02;;;;;;;27.20;11.10;;;;;;;-4.58;76.79;99791.09;105983;1254;107184;-69
2023/12/04 05:09:30;;;;;;;27.60;12.60;;;;;;;-4.58;76.91;99793.69;105948;1256;96709;-69
2023/12/04 05:11:58;;;;;;;26.60;12.20;;;;;;;-4.58;76.84;99791.27;106708;1251;96600;-69
2023/12/04 05:14:27;;;;;;;31.80;13.20;;;;;;;-4.58;76.87;99792.49;105350;1257;109602;-69
2023/12/04 05:16:55;;;;;;;27.90;12.00;;;;;;;-4.59;76.70;99795.77;106181;1254;96591;-72
2023/12/04 05:19:23;;;;;;;34.30;13.40;;;;;;;-4.59;76.78;99791.80;108535;1251;107220;-72
2023/12/04 05:21:50;;;;;;;28.60;12.30;;;;;;;-4.57;77.10;99793.53;105656;1253;97948;-71
2023/12/04 05:24:18;;;;;;;31.40;13.10;;;;;;;-4.57;76.82;99791.97;107729;1251;96326;-72
2023/12/04 05:26:46;;;;;;;31.50;12.80;;;;;;;-4.56;76.77;99790.59;106951;1251;109899;-72
2023/12/04 05:29:14;;;;;;;31.80;13.70;;;;;;;-4.55;76.77;99796.99;105844;1254;97830;-73
2023/12/04 05:31:42;;;;;;;28.80;12.10;;;;;;;-4.53;76.66;99798.04;105411;1257;109157;-72
2023/12/04 05:34:10;;;;;;;29.70;13.00;;;;;;;-4.51;76.82;99797.34;105706;1256;96552;-70
2023/12/04 05:36:38;;;;;;;29.50;12.90;;;;;;;-4.49;76.71;99790.77;105819;1254;96596;-70
2023/12/04 05:39:07;;;;;;;33.70;13.50;;;;;;;-4.50;76.65;99790.59;106837;1257;109824;-69
2023/12/04 05:41:35;;;;;;;27.70;12.20;;;;;;;-4.52;76.78;99785.05;105459;1264;97807;-70
2023/12/04 05:44:03;;;;;;;33.50;13.50;;;;;;;-4.54;76.41;99780.71;108552;1251;106601;-70
2023/12/04 05:46:32;;;;;;;30.90;13.00;;;;;;;-4.57;76.47;99781.59;108480;1251;94509;-71
2023/12/04 05:49:00;;;;;;;31.00;13.10;;;;;;;-4.57;76.57;99778.81;108943;1251;94502;-70
2023/12/04 05:51:28;;;;;;;32.40;14.60;;;;;;;-4.54;76.68;99785.21;108905;1251;108285;-70
2023/12/04 05:53:59;;;;;;;33.80;14.50;;;;;;;-4.53;76.61;99789.20;105881;1254;97940;-73
2023/12/04 05:56:27;;;;;;;29.70;13.50;;;;;;;-4.53;76.60;99791.63;108131;1251;107491;-72
2023/12/04 05:58:55;;;;;;;33.50;16.20;;;;;;;-4.51;76.65;99794.23;105752;1251;96690;-72
2023/12/04 06:01:24;;;;;;;33.10;15.80;;;;;;;-4.52;76.27;99790.92;107488;1251;96519;-71
2023/12/04 06:03:51;;;;;;;32.10;15.80;;;;;;;-4.54;76.49;99792.48;106000;1254;109918;-74
2023/12/04 06:06:19;;;;;;;31.50;14.80;;;;;;;-4.49;76.65;99797.86;106005;1254;96961;-73
2023/12/04 06:08:47;;;;;;;33.40;14.40;;;;;;;-4.45;76.59;99802.01;105435;1254;107614;-73
2023/12/04 06:11:15;;;;;;;28.80;13.40;;;;;;;-4.40;76.77;99804.43;105504;1270;96600;-73
2023/12/04 06:13:42;;;;;;;29.90;14.10;;;;;;;-4.37;76.65;99811.20;105583;1254;96412;-74
2023/12/04 06:16:10;;;;;;;32.70;14.40;;;;;;;-4.33;76.65;99811.70;106215;1254;109944;-74
2023/12/04 06:18:38;;;;;;;35.60;16.80;;;;;;;-4.29;76.82;99807.38;105695;1250;97904;-73
2023/12/04 06:21:06;;;;;;;28.30;12.30;;;;;;;-4.29;76.46;99809.63;106538;1251;107640;-74
2023/12/04 06:23:34;;;;;;;31.30;13.30;;;;;;;-4.31;76.29;99809.98;105699;1257;97890;-74
2023/12/04 06:26:03;;;;;;;28.60;13.10;;;;;;;-4.28;76.79;99807.54;105760;1254;96606;-73
2023/12/04 06:28:34;;;;;;;29.40;12.40;;;;;;;-4.25;76.62;99807.20;108735;1251;109497;-73
2023/12/04 06:31:02;;;;;;;28.60;12.70;;;;;;;-4.24;76.63;99811.88;105837;1254;96561;-73
2023/12/04 06:33:30;;;;;;;29.30;13.10;;;;;;;-4.20;76.87;99810.50;105470;1258;107589;-73
2023/12/04 06:35:59;;;;;;;32.50;14.00;;;;;;;-4.19;76.62;99811.02;105658;1252;96593;-73
2023/12/04 06:38:31;;;;;;;30.10;13.80;;;;;;;-4.14;76.82;99811.70;108574;1251;94497;-79
2023/12/04 06:40:59;;;;;;;28.10;12.40;;;;;;;-4.10;76.64;99813.96;108327;1251;109713;-79
2023/12/04 06:43:27;;;;;;;27.50;12.00;;;;;;;-4.07;76.73;99814.64;106732;1254;97960;-74
2023/12/04 06:45:58;;;;;;;27.80;12.50;;;;;;;-4.03;76.85;99816.71;105523;1254;107210;-75
2023/12/04 06:48:26;;;;;;;28.70;11.80;;;;;;;-4.00;76.59;99816.71;105357;1253;97589;-75
2023/12/04 06:50:56;;;;;;;26.80;11.30;;;;;;;-3.98;76.68;99814.63;105657;1253;97942;-76
2023/12/04 06:53:23;;;;;;;23.30;9.60;;;;;;;-3.96;76.80;99822.26;106976;1251;110124;-76
2023/12/04 06:55:51;;;;;;;27.20;10.60;;;;;;;-3.93;76.67;99824.33;105817;1251;97794;-75
2023/12/04 06:58:19;;;;;;;24.80;10.20;;;;;;;-3.91;76.61;99824.67;105836;1253;108279;-75
2023/12/04 07:00:48;;;;;;;24.30;10.20;;;;;;;-3.89;76.84;99827.45;106234;1252;97216;-75
2023/12/04 07:03:16;;;;;;;29.10;11.70;;;;;;;-3.90;76.69;99828.48;105735;1254;96600;-76
2023/12/04 07:05:44;;;;;;;38.60;16.00;;;;;;;-3.85;76.63;99828.81;105604;1251;109863;-75
2023/12/04 07:08:12;;;;;;;42.40;16.30;;;;;;;-3.80;76.50;99830.20;105927;1251;97528;-75
2023/12/04 07:10:40;;;;;;;35.60;15.00;;;;;;;-3.77;76.79;99832.10;106318;1251;108218;-75
2023/12/04 07:13:12;;;;;;;30.70;13.90;;;;;;;-3.71;76.65;99836.77;105681;1251;96600;-75
2023/12/04 07:15:40;;;;;;;33.10;14.90;;;;;;;-3.69;76.89;99833.48;106721;1251;96613;-75
2023/12/04 07:18:08;;;;;;;32.50;14.80;;;;;;;-3.68;76.76;99830.88;105808;1254;109684;-75
2023/12/04 07:20:36;;;;;;;37.30;15.10;;;;;;;-3.66;76.76;99837.44;105944;1253;97554;-76
2023/12/04 07:23:04;;;;;;;33.70;14.60;;;;;;;-3.63;76.68;99836.91;105570;1251;107101;-73
2023/12/04 07:25:32;;;;;;;31.00;13.40;;;;;;;-3.60;76.65;99840.90;105559;1254;96635;-74
2023/12/04 07:28:00;;;;;;;43.40;17.20;;;;;;;-3.56;76.66;99843.50;106277;1253;96689;-75
2023/12/04 07:30:27;;;;;;;38.80;15.50;;;;;;;-3.54;76.59;99845.05;106818;1251;109828;-74
2023/12/04 07:32:56;;;;;;;34.50;13.70;;;;;;;-3.54;76.60;99844.20;105744;1253;96586;-74
2023/12/04 07:35:26;;;;;;;40.70;16.60;;;;;;;-3.54;76.57;99842.27;105888;1250;106248;-75
2023/12/04 07:37:55;;;;;;;38.90;16.10;;;;;;;-3.52;76.57;99845.75;105608;1264;96596;-75
2023/12/04 07:40:26;;;;;;;34.30;14.10;;;;;;;-3.49;76.67;99846.44;105427;1254;97919;-74
2023/12/04 07:42:54;;;;;;;31.90;12.60;;;;;;;-3.50;76.67;99847.12;105595;1253;109945;-73
2023/12/04 07:45:23;;;;;;;30.80;12.80;;;;;;;-3.49;76.64;99848.51;106067;1253;96582;-75
2023/12/04 07:47:51;;;;;;;34.60;13.20;;;;;;;-3.46;76.70;99850.73;105631;1257;109177;-75
2023/12/04 07:50:19;;;;;;;32.10;11.90;;;;;;;-3.45;76.61;99849.52;105739;1254;96589;-75
2023/12/04 07:52:47;;;;;;;30.60;11.90;;;;;;;-3.43;76.49;99848.13;105667;1254;96628;-75
2023/12/04 07:55:15;;;;;;;28.90;12.60;;;;;;;-3.40;76.46;99848.46;105302;1254;109871;-74
2023/12/04 07:57:43;;;;;;;27.70;10.90;;;;;;;-3.36;76.65;99851.92;105994;1254;97814;-74
2023/12/04 08:00:13;;;;;;;26.70;10.60;;;;;;;-3.32;76.85;99854.02;105440;1264;108264;-75
2023/12/04 08:02:44;;;;;;;25.70;9.40;;;;;;;-3.28;76.71;99852.61;106639;1252;96540;-75
2023/12/04 08:05:12;;;;;;;25.10;9.20;;;;;;;-3.24;76.58;99855.88;105657;1251;97481;-75
2023/12/04 08:07:41;;;;;;;23.30;9.00;;;;;;;-3.21;76.58;99856.21;105699;1254;109900;-76
2023/12/04 08:10:09;;;;;;;21.20;8.20;;;;;;;-3.16;76.64;99855.86;105918;1255;96645;-76
2023/12/04 08:12:37;;;;;;;19.80;8.20;;;;;;;-3.10;76.61;99859.14;105692;1254;107119;-76
2023/12/04 08:15:06;;;;;;;24.10;9.10;;;;;;;-3.07;76.42;99859.30;105782;1254;97084;-75
2023/12/04 08:17:33;;;;;;;28.50;10.80;;;;;;;-3.05;76.68;99863.60;105781;1250;97918;-76
2023/12/04 08:20:01;;;;;;;25.30;9.60;;;;;;;-3.00;76.42;99859.42;107094;1250;109896;-76
2023/12/04 08:22:30;;;;;;;25.30;10.30;;;;;;;-2.94;76.68;99851.95;105951;1254;96510;-74
2023/12/04 08:24:58;;;;;;;23.70;9.20;;;;;;;-2.88;76.57;99853.84;105828;1251;107206;-74
2023/12/04 08:27:26;;;;;;;25.80;10.30;;;;;;;-2.85;76.79;99855.02;105771;1250;96729;-74
2023/12/04 08:29:54;;;;;;;23.80;9.00;;;;;;;-2.81;76.51;99858.64;105848;1250;97838;-75
2023/12/04 08:32:22;;;;;;;26.00;9.70;;;;;;;-2.76;76.53;99860.70;105378;1254;109086;-74
2023/12/04 08:34:50;;;;;;;22.60;8.90;;;;;;;-2.72;76.48;99857.04;105449;1262;96626;-75
2023/12/04 08:37:18;;;;;;;25.00;9.60;;;;;;;-2.70;76.48;99854.77;105490;1263;107571;-76
2023/12/04 08:39:46;;;;;;;28.20;11.30;;;;;;;-2.66;76.42;99851.28;105900;1254;96702;-76
2023/12/04 08:42:14;;;;;;;23.60;10.80;;;;;;;-2.66;76.23;99853.54;105518;1254;97201;-75
2023/12/04 08:44:50;;;;;;;25.80;10.40;;;;;;;-2.67;76.48;99857.52;105839;1252;109759;-75
2023/12/04 08:47:18;;;;;;;32.60;13.40;;;;;;;-2.65;76.28;99865.32;107605;1251;96659;-76
2023/12/04 08:49:46;;;;;;;32.40;14.20;;;;;;;-2.64;76.41;99868.44;105328;1255;105696;-75
2023/12/04 08:52:16;;;;;;;30.20;14.40;;;;;;;-2.62;76.42;99871.21;105396;1254;96610;-75
2023/12/04 08:54:44;;;;;;;29.00;12.40;;;;;;;-2.58;76.40;99874.14;105482;1250;96584;-75
2023/12/04 08:57:15;;;;;;;27.30;12.40;;;;;;;-2.56;76.43;99871.34;105375;1254;109871;-75
2023/12/04 08:59:42;;;;;;;27.20;12.30;;;;;;;-2.53;76.34;99868.90;105367;1254;96599;-76
2023/12/04 09:02:10;;;;;;;25.80;10.70;;;;;;;-2.50;76.34;99867.66;107545;1250;107671;-76
2023/12/04 09:04:41;;;;;;;25.20;10.90;;;;;;;-2.48;76.46;99866.96;105434;1255;96609;-76
2023/12/04 09:07:10;;;;;;;27.90;12.30;;;;;;;-2.45;76.40;99866.77;105511;1254;96647;-76
2023/12/04 09:09:58;;;;;;;25.40;9.60;;;;;;;-2.41;76.39;99863.43;105373;1251;109568;-76
2023/12/04 09:12:29;;;;;;;22.60;9.50;;;;;;;-2.35;76.45;99865.82;106056;1254;96605;-77
2023/12/04 09:14:57;;;;;;;26.80;10.30;;;;;;;-2.31;76.32;99864.24;105973;1250;107668;-77
2023/12/04 09:17:27;;;;;;;23.00;9.70;;;;;;;-2.27;76.31;99865.77;106011;1254;96604;-76
2023/12/04 09:20:05;;;;;;;26.20;10.60;;;;;;;-2.20;76.22;99863.12;106094;1254;96680;-76
2023/12/04 09:22:38;;;;;;;24.80;10.40;;;;;;;-2.17;76.29;99855.95;106516;1251;109370;-76
2023/12/04 09:25:27;;;;;;;24.90;10.60;;;;;;;-2.14;76.05;99854.55;105499;1254;96580;-75
2023/12/04 09:27:55;;;;;;;24.90;11.50;;;;;;;-2.15;76.03;99850.04;105731;1254;107148;-76
2023/12/04 09:30:23;;;;;;;28.00;12.20;;;;;;;-2.14;76.15;99851.95;106399;1253;96619;-77
2023/12/04 09:32:51;;;;;;;25.90;11.80;;;;;;;-2.14;76.08;99844.80;105648;1253;97473;-76
2023/12/04 09:35:19;;;;;;;28.30;11.50;;;;;;;-2.13;76.02;99844.29;106945;1253;109610;-76
2023/12/04 09:37:50;;;;;;;24.10;11.10;;;;;;;-2.13;76.14;99845.16;105832;1251;96603;-76
2023/12/04 09:40:18;;;;;;;24.60;10.20;;;;;;;-2.15;76.17;99838.56;105273;1254;107431;-76
2023/12/04 09:42:47;;;;;;;25.00;10.10;;;;;;;-2.18;75.83;99839.81;105600;1257;96609;-76
2023/12/04 09:45:15;;;;;;;27.10;12.20;;;;;;;-2.19;76.11;99843.46;105366;1253;96683;-77
2023/12/04 09:47:45;;;;;;;28.10;12.30;;;;;;;-2.19;76.11;99841.55;105442;1257;109588;-76
2023/12/04 09:50:20;;;;;;;26.30;11.20;;;;;;;-2.19;75.98;99840.16;106524;1252;97493;-75
2023/12/04 09:52:50;;;;;;;27.40;11.80;;;;;;;-2.17;76.15;99845.36;105712;1254;107210;-75
2023/12/04 09:55:18;;;;;;;26.40;10.90;;;;;;;-2.15;75.98;99846.05;105313;1256;96704;-76
2023/12/04 09:57:48;;;;;;;25.60;11.70;;;;;;;-2.14;76.24;99843.09;105473;1257;96612;-76
2023/12/04 10:00:19;;;;;;;25.00;10.40;;;;;;;-2.12;76.10;99842.54;105477;1250;111552;-76
2023/12/04 10:02:47;;;;;;;24.10;10.00;;;;;;;-2.12;76.17;99837.49;108310;1250;95051;-76
2023/12/04 10:05:16;;;;;;;21.00;9.00;;;;;;;-2.11;76.15;99838.71;105814;1254;106489;-76
2023/12/04 10:07:43;;;;;;;23.70;9.50;;;;;;;-2.10;75.96;99841.83;105500;1254;98040;-76
2023/12/04 10:10:13;;;;;;;24.40;10.30;;;;;;;-2.09;76.03;99838.01;105740;1254;96612;-76
2023/12/04 10:12:43;;;;;;;25.30;10.20;;;;;;;-2.04;75.90;99832.05;105797;1254;109612;-76
2023/12/04 10:15:12;;;;;;;22.20;9.20;;;;;;;-2.03;75.92;99822.48;106694;1250;97382;-76
2023/12/04 10:17:43;;;;;;;22.20;9.60;;;;;;;-2.02;75.88;99821.24;105979;1251;107046;-76
2023/12/04 10:20:17;;;;;;;21.10;9.90;;;;;;;-2.00;75.94;99822.28;105566;1251;97377;-74
2023/12/04 10:22:57;;;;;;;25.00;10.60;;;;;;;-1.99;76.06;99820.34;105795;1250;96584;-76
2023/12/04 10:25:29;;;;;;;25.10;10.50;;;;;;;-1.92;75.98;99825.51;105474;1253;111538;-76
2023/12/04 10:28:09;;;;;;;23.70;9.10;;;;;;;-1.90;76.04;99829.14;105641;1252;96600;-76
2023/12/04 10:30:37;;;;;;;22.20;8.90;;;;;;;-1.87;75.93;99827.72;105461;1257;107559;-75
2023/12/04 10:33:07;;;;;;;21.20;8.30;;;;;;;-1.87;75.79;99826.16;106289;1253;96612;-76
2023/12/04 10:35:36;;;;;;;23.40;10.60;;;;;;;-1.87;75.88;99825.48;105465;1254;96636;-75
2023/12/04 10:38:08;;;;;;;23.90;9.40;;;;;;;-1.86;76.00;99821.80;106014;1250;109508;-75
2023/12/04 10:40:37;;;;;;;23.00;9.80;;;;;;;-1.86;76.03;99819.71;105570;1254;96651;-75
2023/12/04 10:43:19;;;;;;;22.80;10.00;;;;;;;-1.84;75.87;99814.13;106447;1250;107625;-75
2023/12/04 10:45:48;;;;;;;25.60;12.60;;;;;;;-1.83;75.83;99811.70;105417;1251;96615;-75
2023/12/04 10:48:18;;;;;;;25.20;11.40;;;;;;;-1.82;75.84;99805.06;105524;1254;96583;-75
2023/12/04 10:50:48;;;;;;;24.90;10.30;;;;;;;-1.80;75.57;99804.34;105337;1254;109432;-75
2023/12/04 10:53:18;;;;;;;25.60;12.90;;;;;;;-1.78;75.75;99802.07;105895;1250;96603;-75
2023/12/04 10:55:50;;;;;;;26.10;12.30;;;;;;;-1.75;75.84;99800.30;105237;1255;107092;-75
2023/12/04 10:58:20;;;;;;;25.30;11.00;;;;;;;-1.72;75.72;99801.32;106025;1250;96549;-75
2023/12/04 11:03:43;;;;;;;25.50;10.60;;;;;;;-1.69;75.56;99798.31;102229;1294;635683;-76
2023/12/04 11:06:14;;;;;;;24.20;10.30;;;;;;;-1.67;75.74;99796.39;104619;1272;94855;-75
2023/12/04 11:08:43;;;;;;;23.80;10.00;;;;;;;-1.66;75.71;99798.11;104677;1267;94301;-76
2023/12/04 11:11:36;;;;;;;25.70;9.90;;;;;;;-1.66;75.84;99794.82;104497;1269;106760;-76
2023/12/04 11:14:07;;;;;;;22.80;9.80;;;;;;;-1.62;75.69;99790.25;104434;1272;95638;-77
2023/12/04 11:16:47;;;;;;;26.30;10.10;;;;;;;-1.62;75.49;99792.86;104655;1274;175102;-77
2023/12/04 11:19:24;;;;;;;28.10;12.00;;;;;;;-1.64;75.26;99786.61;104996;1263;95251;-76
2023/12/04 11:21:53;;;;;;;25.90;10.40;;;;;;;-1.66;75.30;99785.42;104688;1266;94401;-74